Skip Navigation LinksHome page > Weather > Current weather Skip Navigation Links

Current Weather

Indira Gandhi Intl Apt, New Delhi, India

For information only: do not use for flight planning or navigation.
Latest weather
Observation time Saturday, August 27, 2016 1:00 PM IST
Local time Saturday, August 27, 2016 1:46 PM IST
Flight conditions Instrument Meteorological Conditions
Winds
Wind direction East-Southeast (120°)
Wind speed 8 mph
Visibility 2.5 mi.
Present weather haze
Sky condition
Ceiling 10,000 ft. broken clouds
Cloud layer scattered clouds 3,000 ft.
Cloud layer broken clouds 10,000 ft.
Temperature 91°F
Dewpoint 79°F
Altimeter 29.77 in.Hg
Derived measurements
Relative humidity 67%
Heat index 108°F
Density altitude 3438 ft.
Remarks
No significant changes expected in the next two hours.
METAR VIDP 270730Z 12007KT 4000 HZ SCT030 BKN100 33/26 Q1008 NOSIG

Settings

Location code

InnerDrive.Weather 4.0.5722.1 Release CLR 4.0.30319.34209
Copyright ©2015 Inner Drive Technology. All rights reserved. Portions Copyright ©1986-2015 David Braverman.

Find weather

Site navigation


Skip Navigation Links

Place info

Page info

PayPal - The safer, easier way to pay online!

Return home.

Copyright ©2016 Inner Drive Technology. Purveyors of fine, hand-crafted computer software. Page printed 2016-08-27T08:16:52 UTC.